sensor_id;sensor_type;location;lat;lon;timestamp;temperature;humidity
37794;DHT22;23632;48.826;15.176;2023-02-15T00:00:05;5.00;75.30
37794;DHT22;23632;48.826;15.176;2023-02-15T00:02:34;4.90;75.20
37794;DHT22;23632;48.826;15.176;2023-02-15T00:05:01;4.90;75.20
37794;DHT22;23632;48.826;15.176;2023-02-15T00:07:29;4.90;75.20
37794;DHT22;23632;48.826;15.176;2023-02-15T00:09:56;4.80;75.10
37794;DHT22;23632;48.826;15.176;2023-02-15T00:12:22;4.80;75.20
37794;DHT22;23632;48.826;15.176;2023-02-15T00:14:49;4.80;75.20
37794;DHT22;23632;48.826;15.176;2023-02-15T00:17:16;4.80;75.30
37794;DHT22;23632;48.826;15.176;2023-02-15T00:19:44;4.80;75.30
37794;DHT22;23632;48.826;15.176;2023-02-15T00:22:11;4.80;75.30
37794;DHT22;23632;48.826;15.176;2023-02-15T00:24:38;4.80;75.40
37794;DHT22;23632;48.826;15.176;2023-02-15T00:27:05;4.70;75.40
37794;DHT22;23632;48.826;15.176;2023-02-15T00:29:32;4.70;75.40
37794;DHT22;23632;48.826;15.176;2023-02-15T00:31:59;4.80;75.50
37794;DHT22;23632;48.826;15.176;2023-02-15T00:34:27;4.80;75.50
37794;DHT22;23632;48.826;15.176;2023-02-15T00:36:56;4.70;75.40
37794;DHT22;23632;48.826;15.176;2023-02-15T00:39:23;4.70;75.40
37794;DHT22;23632;48.826;15.176;2023-02-15T00:41:50;4.70;75.40
37794;DHT22;23632;48.826;15.176;2023-02-15T00:44:17;4.70;75.40
37794;DHT22;23632;48.826;15.176;2023-02-15T00:46:44;4.70;75.40
37794;DHT22;23632;48.826;15.176;2023-02-15T00:49:12;4.70;75.40
37794;DHT22;23632;48.826;15.176;2023-02-15T00:51:39;4.60;75.30
37794;DHT22;23632;48.826;15.176;2023-02-15T00:54:06;4.60;75.30
37794;DHT22;23632;48.826;15.176;2023-02-15T00:56:34;4.60;75.40
37794;DHT22;23632;48.826;15.176;2023-02-15T00:59:01;4.50;75.50
37794;DHT22;23632;48.826;15.176;2023-02-15T01:01:28;4.50;75.60
37794;DHT22;23632;48.826;15.176;2023-02-15T01:03:55;4.50;75.60
37794;DHT22;23632;48.826;15.176;2023-02-15T01:06:23;4.50;75.60
37794;DHT22;23632;48.826;15.176;2023-02-15T01:08:49;4.50;75.70
37794;DHT22;23632;48.826;15.176;2023-02-15T01:11:19;4.50;75.70
37794;DHT22;23632;48.826;15.176;2023-02-15T01:13:52;4.50;75.70
37794;DHT22;23632;48.826;15.176;2023-02-15T01:16:22;4.50;75.70
37794;DHT22;23632;48.826;15.176;2023-02-15T01:18:51;4.50;75.60
37794;DHT22;23632;48.826;15.176;2023-02-15T01:21:21;4.50;75.60
37794;DHT22;23632;48.826;15.176;2023-02-15T01:23:49;4.50;75.70
37794;DHT22;23632;48.826;15.176;2023-02-15T01:26:17;4.50;75.60
37794;DHT22;23632;48.826;15.176;2023-02-15T01:28:44;4.40;75.60
37794;DHT22;23632;48.826;15.176;2023-02-15T01:31:14;4.40;75.60
37794;DHT22;23632;48.826;15.176;2023-02-15T01:33:45;4.40;75.70
37794;DHT22;23632;48.826;15.176;2023-02-15T01:36:13;4.40;75.70
37794;DHT22;23632;48.826;15.176;2023-02-15T01:38:41;4.30;75.60
37794;DHT22;23632;48.826;15.176;2023-02-15T01:41:08;4.30;75.70
37794;DHT22;23632;48.826;15.176;2023-02-15T01:43:53;4.30;75.80
37794;DHT22;23632;48.826;15.176;2023-02-15T01:46:31;4.30;75.90
37794;DHT22;23632;48.826;15.176;2023-02-15T01:49:09;4.30;76.00
37794;DHT22;23632;48.826;15.176;2023-02-15T01:51:41;4.30;75.90
37794;DHT22;23632;48.826;15.176;2023-02-15T01:54:27;4.30;75.90
37794;DHT22;23632;48.826;15.176;2023-02-15T01:57:03;4.30;76.00
37794;DHT22;23632;48.826;15.176;2023-02-15T01:59:33;4.30;76.00
37794;DHT22;23632;48.826;15.176;2023-02-15T02:02:02;4.30;75.90
37794;DHT22;23632;48.826;15.176;2023-02-15T02:04:58;4.30;76.00
37794;DHT22;23632;48.826;15.176;2023-02-15T02:07:31;4.30;76.00
37794;DHT22;23632;48.826;15.176;2023-02-15T02:10:02;4.30;75.90
37794;DHT22;23632;48.826;15.176;2023-02-15T02:12:33;4.30;76.30
37794;DHT22;23632;48.826;15.176;2023-02-15T02:15:00;4.30;76.00
37794;DHT22;23632;48.826;15.176;2023-02-15T02:17:54;4.30;76.00
37794;DHT22;23632;48.826;15.176;2023-02-15T02:21:02;4.30;76.00
37794;DHT22;23632;48.826;15.176;2023-02-15T02:30:09;4.30;75.90
37794;DHT22;23632;48.826;15.176;2023-02-15T02:42:09;4.20;76.00
37794;DHT22;23632;48.826;15.176;2023-02-15T02:44:49;4.20;76.00
37794;DHT22;23632;48.826;15.176;2023-02-15T02:47:35;4.20;76.00
37794;DHT22;23632;48.826;15.176;2023-02-15T02:50:07;4.20;76.10
37794;DHT22;23632;48.826;15.176;2023-02-15T02:52:43;4.20;76.80
37794;DHT22;23632;48.826;15.176;2023-02-15T03:03:51;4.20;76.00
37794;DHT22;23632;48.826;15.176;2023-02-15T03:06:26;4.20;76.00
37794;DHT22;23632;48.826;15.176;2023-02-15T03:09:03;4.20;76.00
37794;DHT22;23632;48.826;15.176;2023-02-15T03:11:43;4.20;76.00
37794;DHT22;23632;48.826;15.176;2023-02-15T03:14:12;4.20;75.90
37794;DHT22;23632;48.826;15.176;2023-02-15T03:16:42;4.20;75.90
37794;DHT22;23632;48.826;15.176;2023-02-15T03:19:16;4.10;75.80
37794;DHT22;23632;48.826;15.176;2023-02-15T03:21:50;4.10;75.80
37794;DHT22;23632;48.826;15.176;2023-02-15T03:24:34;4.10;75.80
37794;DHT22;23632;48.826;15.176;2023-02-15T03:27:09;4.10;75.90
37794;DHT22;23632;48.826;15.176;2023-02-15T03:29:39;4.10;75.90
37794;DHT22;23632;48.826;15.176;2023-02-15T03:32:09;4.10;75.90
37794;DHT22;23632;48.826;15.176;2023-02-15T03:34:38;4.10;76.00
37794;DHT22;23632;48.826;15.176;2023-02-15T03:37:32;4.00;75.90
37794;DHT22;23632;48.826;15.176;2023-02-15T03:45:54;4.00;76.10
37794;DHT22;23632;48.826;15.176;2023-02-15T03:48:33;4.00;76.10
37794;DHT22;23632;48.826;15.176;2023-02-15T03:51:09;4.00;76.20
37794;DHT22;23632;48.826;15.176;2023-02-15T03:53:59;3.90;76.20
37794;DHT22;23632;48.826;15.176;2023-02-15T03:56:31;3.90;76.20
37794;DHT22;23632;48.826;15.176;2023-02-15T03:59:00;3.90;76.20
37794;DHT22;23632;48.826;15.176;2023-02-15T04:04:39;3.90;76.20
37794;DHT22;23632;48.826;15.176;2023-02-15T04:07:09;3.90;76.30
37794;DHT22;23632;48.826;15.176;2023-02-15T04:09:36;3.90;76.20
37794;DHT22;23632;48.826;15.176;2023-02-15T04:12:22;3.90;76.30
37794;DHT22;23632;48.826;15.176;2023-02-15T04:14:49;3.90;76.50
37794;DHT22;23632;48.826;15.176;2023-02-15T04:17:36;3.80;76.40
37794;DHT22;23632;48.826;15.176;2023-02-15T04:20:04;3.90;76.50
37794;DHT22;23632;48.826;15.176;2023-02-15T04:22:50;3.80;76.50
37794;DHT22;23632;48.826;15.176;2023-02-15T04:25:36;3.90;76.60
37794;DHT22;23632;48.826;15.176;2023-02-15T04:28:03;3.90;76.60
37794;DHT22;23632;48.826;15.176;2023-02-15T04:30:30;3.90;76.60
37794;DHT22;23632;48.826;15.176;2023-02-15T04:32:57;3.90;76.60
37794;DHT22;23632;48.826;15.176;2023-02-15T04:35:24;3.80;76.50
37794;DHT22;23632;48.826;15.176;2023-02-15T04:37:52;3.80;76.50
37794;DHT22;23632;48.826;15.176;2023-02-15T04:40:19;3.80;76.60
37794;DHT22;23632;48.826;15.176;2023-02-15T04:42:49;3.80;76.60
37794;DHT22;23632;48.826;15.176;2023-02-15T04:45:17;3.80;76.60
37794;DHT22;23632;48.826;15.176;2023-02-15T04:47:44;3.80;76.70
37794;DHT22;23632;48.826;15.176;2023-02-15T04:50:11;3.80;76.70
37794;DHT22;23632;48.826;15.176;2023-02-15T04:52:39;3.80;76.80
37794;DHT22;23632;48.826;15.176;2023-02-15T04:55:06;3.80;76.90
37794;DHT22;23632;48.826;15.176;2023-02-15T04:57:33;3.80;76.90
37794;DHT22;23632;48.826;15.176;2023-02-15T05:00:00;3.80;76.80
37794;DHT22;23632;48.826;15.176;2023-02-15T05:02:28;3.80;76.90
37794;DHT22;23632;48.826;15.176;2023-02-15T05:04:54;3.80;76.80
37794;DHT22;23632;48.826;15.176;2023-02-15T05:07:21;3.90;76.90
37794;DHT22;23632;48.826;15.176;2023-02-15T05:09:48;3.80;76.90
37794;DHT22;23632;48.826;15.176;2023-02-15T05:12:16;3.80;76.90
37794;DHT22;23632;48.826;15.176;2023-02-15T05:14:43;3.90;76.90
37794;DHT22;23632;48.826;15.176;2023-02-15T05:17:10;3.80;76.80
37794;DHT22;23632;48.826;15.176;2023-02-15T05:19:37;3.80;76.80
37794;DHT22;23632;48.826;15.176;2023-02-15T05:22:04;3.80;76.80
37794;DHT22;23632;48.826;15.176;2023-02-15T05:24:31;3.80;76.80
37794;DHT22;23632;48.826;15.176;2023-02-15T05:27:16;3.70;76.70
37794;DHT22;23632;48.826;15.176;2023-02-15T05:30:02;3.70;76.70
37794;DHT22;23632;48.826;15.176;2023-02-15T05:32:30;3.70;76.70
37794;DHT22;23632;48.826;15.176;2023-02-15T05:34:57;3.70;76.70
37794;DHT22;23632;48.826;15.176;2023-02-15T05:37:24;3.70;76.80
37794;DHT22;23632;48.826;15.176;2023-02-15T05:39:51;3.60;76.70
37794;DHT22;23632;48.826;15.176;2023-02-15T05:42:18;3.60;76.70
37794;DHT22;23632;48.826;15.176;2023-02-15T05:44:45;3.60;76.70
37794;DHT22;23632;48.826;15.176;2023-02-15T05:47:12;3.60;76.70
37794;DHT22;23632;48.826;15.176;2023-02-15T05:49:39;3.60;76.70
37794;DHT22;23632;48.826;15.176;2023-02-15T05:52:06;3.50;76.80
37794;DHT22;23632;48.826;15.176;2023-02-15T05:54:34;3.50;76.80
37794;DHT22;23632;48.826;15.176;2023-02-15T05:57:01;3.50;76.90
37794;DHT22;23632;48.826;15.176;2023-02-15T05:59:29;3.50;77.00
37794;DHT22;23632;48.826;15.176;2023-02-15T06:01:56;3.50;77.00
37794;DHT22;23632;48.826;15.176;2023-02-15T06:04:23;3.50;77.00
37794;DHT22;23632;48.826;15.176;2023-02-15T06:06:50;3.50;77.00
37794;DHT22;23632;48.826;15.176;2023-02-15T06:09:17;3.50;77.00
37794;DHT22;23632;48.826;15.176;2023-02-15T06:11:45;3.50;77.00
37794;DHT22;23632;48.826;15.176;2023-02-15T06:14:13;3.60;77.10
37794;DHT22;23632;48.826;15.176;2023-02-15T06:16:40;3.50;77.10
37794;DHT22;23632;48.826;15.176;2023-02-15T06:19:07;3.60;77.20
37794;DHT22;23632;48.826;15.176;2023-02-15T06:21:34;3.60;77.20
37794;DHT22;23632;48.826;15.176;2023-02-15T06:24:01;3.60;77.20
37794;DHT22;23632;48.826;15.176;2023-02-15T06:26:28;3.60;77.20
37794;DHT22;23632;48.826;15.176;2023-02-15T06:28:55;3.60;77.20
37794;DHT22;23632;48.826;15.176;2023-02-15T06:31:22;3.60;77.30
37794;DHT22;23632;48.826;15.176;2023-02-15T06:33:49;3.60;77.30
37794;DHT22;23632;48.826;15.176;2023-02-15T06:36:17;3.60;77.20
37794;DHT22;23632;48.826;15.176;2023-02-15T06:38:44;3.60;77.20
37794;DHT22;23632;48.826;15.176;2023-02-15T06:41:11;3.60;77.10
37794;DHT22;23632;48.826;15.176;2023-02-15T06:43:38;3.60;77.20
37794;DHT22;23632;48.826;15.176;2023-02-15T06:46:06;3.60;77.20
37794;DHT22;23632;48.826;15.176;2023-02-15T06:48:34;3.60;77.20
37794;DHT22;23632;48.826;15.176;2023-02-15T06:51:01;3.60;77.20
37794;DHT22;23632;48.826;15.176;2023-02-15T06:53:28;3.60;77.20
37794;DHT22;23632;48.826;15.176;2023-02-15T06:56:06;3.60;77.20
37794;DHT22;23632;48.826;15.176;2023-02-15T06:58:36;3.60;77.20
37794;DHT22;23632;48.826;15.176;2023-02-15T07:01:04;3.60;77.10
37794;DHT22;23632;48.826;15.176;2023-02-15T07:03:32;3.70;77.00
37794;DHT22;23632;48.826;15.176;2023-02-15T07:06:02;3.70;77.00
37794;DHT22;23632;48.826;15.176;2023-02-15T07:08:32;3.60;77.00
37794;DHT22;23632;48.826;15.176;2023-02-15T07:10:59;3.70;77.20
37794;DHT22;23632;48.826;15.176;2023-02-15T07:13:47;3.70;77.30
37794;DHT22;23632;48.826;15.176;2023-02-15T07:16:14;3.70;77.20
37794;DHT22;23632;48.826;15.176;2023-02-15T07:18:41;3.70;77.20
37794;DHT22;23632;48.826;15.176;2023-02-15T07:21:08;3.70;77.00
37794;DHT22;23632;48.826;15.176;2023-02-15T07:23:37;3.80;77.00
37794;DHT22;23632;48.826;15.176;2023-02-15T07:26:06;3.80;77.10
37794;DHT22;23632;48.826;15.176;2023-02-15T07:28:34;3.80;77.10
37794;DHT22;23632;48.826;15.176;2023-02-15T07:31:05;3.80;77.10
37794;DHT22;23632;48.826;15.176;2023-02-15T07:33:33;3.80;77.30
37794;DHT22;23632;48.826;15.176;2023-02-15T07:36:02;3.90;77.40
37794;DHT22;23632;48.826;15.176;2023-02-15T07:38:35;3.90;77.50
37794;DHT22;23632;48.826;15.176;2023-02-15T07:41:06;3.90;77.60
37794;DHT22;23632;48.826;15.176;2023-02-15T07:43:36;4.00;77.60
37794;DHT22;23632;48.826;15.176;2023-02-15T07:46:10;4.00;77.60
37794;DHT22;23632;48.826;15.176;2023-02-15T07:48:41;4.10;77.60
37794;DHT22;23632;48.826;15.176;2023-02-15T07:51:10;4.10;77.50
37794;DHT22;23632;48.826;15.176;2023-02-15T07:53:38;4.20;77.50
37794;DHT22;23632;48.826;15.176;2023-02-15T07:56:09;4.30;77.50
37794;DHT22;23632;48.826;15.176;2023-02-15T07:58:38;4.30;77.50
37794;DHT22;23632;48.826;15.176;2023-02-15T08:01:31;4.30;77.50
37794;DHT22;23632;48.826;15.176;2023-02-15T08:04:00;4.40;77.40
37794;DHT22;23632;48.826;15.176;2023-02-15T08:06:30;4.40;77.30
37794;DHT22;23632;48.826;15.176;2023-02-15T08:08:58;4.50;77.30
37794;DHT22;23632;48.826;15.176;2023-02-15T08:11:27;4.50;77.30
37794;DHT22;23632;48.826;15.176;2023-02-15T08:19:21;4.70;77.10
37794;DHT22;23632;48.826;15.176;2023-02-15T08:21:53;4.70;76.90
37794;DHT22;23632;48.826;15.176;2023-02-15T08:24:26;4.80;76.90
37794;DHT22;23632;48.826;15.176;2023-02-15T08:26:55;4.80;76.70
37794;DHT22;23632;48.826;15.176;2023-02-15T08:29:25;4.90;76.70
37794;DHT22;23632;48.826;15.176;2023-02-15T08:31:59;4.90;76.60
37794;DHT22;23632;48.826;15.176;2023-02-15T08:34:31;4.90;76.60
37794;DHT22;23632;48.826;15.176;2023-02-15T08:37:00;5.00;76.60
37794;DHT22;23632;48.826;15.176;2023-02-15T08:39:27;5.00;76.60
37794;DHT22;23632;48.826;15.176;2023-02-15T08:41:55;5.00;76.50
37794;DHT22;23632;48.826;15.176;2023-02-15T08:44:22;5.10;76.60
37794;DHT22;23632;48.826;15.176;2023-02-15T08:46:49;5.10;76.50
37794;DHT22;23632;48.826;15.176;2023-02-15T08:49:19;5.10;76.40
37794;DHT22;23632;48.826;15.176;2023-02-15T08:51:48;5.20;76.30
37794;DHT22;23632;48.826;15.176;2023-02-15T08:54:18;5.30;76.40
37794;DHT22;23632;48.826;15.176;2023-02-15T08:56:47;5.30;76.30
37794;DHT22;23632;48.826;15.176;2023-02-15T08:59:18;5.30;76.20
37794;DHT22;23632;48.826;15.176;2023-02-15T09:01:47;5.40;76.10
37794;DHT22;23632;48.826;15.176;2023-02-15T09:04:16;5.50;76.00
37794;DHT22;23632;48.826;15.176;2023-02-15T09:06:44;5.50;75.80
37794;DHT22;23632;48.826;15.176;2023-02-15T09:09:16;5.60;75.60
37794;DHT22;23632;48.826;15.176;2023-02-15T09:11:46;5.70;75.30
37794;DHT22;23632;48.826;15.176;2023-02-15T09:14:16;5.70;75.20
37794;DHT22;23632;48.826;15.176;2023-02-15T09:16:47;5.70;75.30
37794;DHT22;23632;48.826;15.176;2023-02-15T09:19:16;5.80;75.30
37794;DHT22;23632;48.826;15.176;2023-02-15T09:21:44;5.80;75.00
37794;DHT22;23632;48.826;15.176;2023-02-15T09:24:13;5.90;74.90
37794;DHT22;23632;48.826;15.176;2023-02-15T09:26:43;5.90;74.70
37794;DHT22;23632;48.826;15.176;2023-02-15T09:29:12;6.00;75.00
37794;DHT22;23632;48.826;15.176;2023-02-15T09:31:46;6.00;74.40
37794;DHT22;23632;48.826;15.176;2023-02-15T09:34:17;6.00;74.30
37794;DHT22;23632;48.826;15.176;2023-02-15T09:36:46;6.10;74.40
37794;DHT22;23632;48.826;15.176;2023-02-15T09:39:22;6.10;74.40
37794;DHT22;23632;48.826;15.176;2023-02-15T09:45:33;6.30;74.20
37794;DHT22;23632;48.826;15.176;2023-02-15T09:48:16;6.30;73.60
37794;DHT22;23632;48.826;15.176;2023-02-15T09:51:43;6.30;73.80
37794;DHT22;23632;48.826;15.176;2023-02-15T10:03:46;6.50;73.40
37794;DHT22;23632;48.826;15.176;2023-02-15T10:06:43;6.50;73.40
37794;DHT22;23632;48.826;15.176;2023-02-15T10:17:56;6.80;73.60
37794;DHT22;23632;48.826;15.176;2023-02-15T10:20:55;6.90;73.80
37794;DHT22;23632;48.826;15.176;2023-02-15T10:23:51;7.00;73.80
37794;DHT22;23632;48.826;15.176;2023-02-15T10:32:22;7.40;73.80
37794;DHT22;23632;48.826;15.176;2023-02-15T10:37:57;7.60;73.20
37794;DHT22;23632;48.826;15.176;2023-02-15T10:55:56;8.20;72.70
37794;DHT22;23632;48.826;15.176;2023-02-15T11:10:35;8.60;71.50
37794;DHT22;23632;48.826;15.176;2023-02-15T11:13:09;8.60;71.50
37794;DHT22;23632;48.826;15.176;2023-02-15T11:15:51;8.70;70.90
37794;DHT22;23632;48.826;15.176;2023-02-15T11:20:55;8.80;71.10
37794;DHT22;23632;48.826;15.176;2023-02-15T11:23:25;8.80;71.10
37794;DHT22;23632;48.826;15.176;2023-02-15T11:26:15;8.90;70.80
37794;DHT22;23632;48.826;15.176;2023-02-15T11:28:53;8.90;70.70
37794;DHT22;23632;48.826;15.176;2023-02-15T11:31:23;9.00;70.60
37794;DHT22;23632;48.826;15.176;2023-02-15T11:34:01;9.00;70.40
37794;DHT22;23632;48.826;15.176;2023-02-15T11:36:38;9.00;70.50
37794;DHT22;23632;48.826;15.176;2023-02-15T11:39:16;9.10;70.20
37794;DHT22;23632;48.826;15.176;2023-02-15T11:41:47;9.10;70.30
37794;DHT22;23632;48.826;15.176;2023-02-15T11:44:41;9.20;70.40
37794;DHT22;23632;48.826;15.176;2023-02-15T11:47:14;9.20;70.30
37794;DHT22;23632;48.826;15.176;2023-02-15T11:49:41;9.30;70.30
37794;DHT22;23632;48.826;15.176;2023-02-15T11:52:12;9.30;70.30
37794;DHT22;23632;48.826;15.176;2023-02-15T11:54:43;9.40;70.20
37794;DHT22;23632;48.826;15.176;2023-02-15T11:57:19;9.50;69.70
37794;DHT22;23632;48.826;15.176;2023-02-15T12:02:36;9.60;69.60
37794;DHT22;23632;48.826;15.176;2023-02-15T12:05:10;9.70;70.60
37794;DHT22;23632;48.826;15.176;2023-02-15T12:08:01;9.70;69.70
37794;DHT22;23632;48.826;15.176;2023-02-15T12:10:40;9.90;69.70
37794;DHT22;23632;48.826;15.176;2023-02-15T12:13:17;10.10;68.70
37794;DHT22;23632;48.826;15.176;2023-02-15T12:15:48;10.30;68.60
37794;DHT22;23632;48.826;15.176;2023-02-15T12:20:59;10.90;68.90
37794;DHT22;23632;48.826;15.176;2023-02-15T12:23:31;11.30;69.20
37794;DHT22;23632;48.826;15.176;2023-02-15T12:26:00;11.80;70.00
37794;DHT22;23632;48.826;15.176;2023-02-15T12:28:33;12.50;69.50
37794;DHT22;23632;48.826;15.176;2023-02-15T12:31:26;13.20;69.70
37794;DHT22;23632;48.826;15.176;2023-02-15T12:34:10;14.00;69.70
37794;DHT22;23632;48.826;15.176;2023-02-15T12:36:45;14.80;68.40
37794;DHT22;23632;48.826;15.176;2023-02-15T12:39:35;15.60;67.30
37794;DHT22;23632;48.826;15.176;2023-02-15T12:42:14;16.50;66.10
37794;DHT22;23632;48.826;15.176;2023-02-15T12:44:54;17.30;65.50
37794;DHT22;23632;48.826;15.176;2023-02-15T12:47:27;18.00;64.10
37794;DHT22;23632;48.826;15.176;2023-02-15T12:50:13;18.70;62.60
37794;DHT22;23632;48.826;15.176;2023-02-15T12:53:07;19.50;63.80
37794;DHT22;23632;48.826;15.176;2023-02-15T12:55:34;20.40;62.90
37794;DHT22;23632;48.826;15.176;2023-02-15T12:58:20;21.10;60.90
37794;DHT22;23632;48.826;15.176;2023-02-15T13:01:16;21.80;61.40
37794;DHT22;23632;48.826;15.176;2023-02-15T13:04:00;22.60;60.10
37794;DHT22;23632;48.826;15.176;2023-02-15T13:06:34;23.30;58.30
37794;DHT22;23632;48.826;15.176;2023-02-15T13:11:42;24.50;56.10
37794;DHT22;23632;48.826;15.176;2023-02-15T13:14:22;25.00;53.70
37794;DHT22;23632;48.826;15.176;2023-02-15T13:16:58;25.60;55.00
37794;DHT22;23632;48.826;15.176;2023-02-15T13:19:42;26.00;52.40
37794;DHT22;23632;48.826;15.176;2023-02-15T13:22:15;26.40;52.10
37794;DHT22;23632;48.826;15.176;2023-02-15T13:24:48;26.80;49.90
37794;DHT22;23632;48.826;15.176;2023-02-15T13:27:22;27.00;48.60
37794;DHT22;23632;48.826;15.176;2023-02-15T13:29:54;27.30;48.00
37794;DHT22;23632;48.826;15.176;2023-02-15T13:32:36;27.50;47.10
37794;DHT22;23632;48.826;15.176;2023-02-15T13:35:05;27.60;47.30
37794;DHT22;23632;48.826;15.176;2023-02-15T13:41:02;27.90;46.10
37794;DHT22;23632;48.826;15.176;2023-02-15T13:44:04;28.00;48.60
37794;DHT22;23632;48.826;15.176;2023-02-15T13:46:52;28.00;47.50
37794;DHT22;23632;48.826;15.176;2023-02-15T13:49:44;28.10;45.50
37794;DHT22;23632;48.826;15.176;2023-02-15T13:52:27;28.10;45.50
37794;DHT22;23632;48.826;15.176;2023-02-15T13:57:57;28.10;44.20
37794;DHT22;23632;48.826;15.176;2023-02-15T14:05:54;28.00;45.10
37794;DHT22;23632;48.826;15.176;2023-02-15T14:17:05;27.90;42.70
37794;DHT22;23632;48.826;15.176;2023-02-15T14:20:14;27.90;44.40
37794;DHT22;23632;48.826;15.176;2023-02-15T14:22:54;27.90;43.70
37794;DHT22;23632;48.826;15.176;2023-02-15T14:25:45;27.80;41.70
37794;DHT22;23632;48.826;15.176;2023-02-15T14:31:11;27.60;42.00
37794;DHT22;23632;48.826;15.176;2023-02-15T14:33:43;27.50;41.30
37794;DHT22;23632;48.826;15.176;2023-02-15T14:36:18;27.30;41.20
37794;DHT22;23632;48.826;15.176;2023-02-15T14:42:07;27.00;41.50
37794;DHT22;23632;48.826;15.176;2023-02-15T14:47:57;26.70;41.70
37794;DHT22;23632;48.826;15.176;2023-02-15T14:58:33;26.30;41.70
37794;DHT22;23632;48.826;15.176;2023-02-15T15:01:06;26.20;40.90
37794;DHT22;23632;48.826;15.176;2023-02-15T15:03:34;26.10;41.10
37794;DHT22;23632;48.826;15.176;2023-02-15T15:06:03;25.90;41.90
37794;DHT22;23632;48.826;15.176;2023-02-15T15:08:38;25.80;40.70
37794;DHT22;23632;48.826;15.176;2023-02-15T15:11:43;25.50;40.60
37794;DHT22;23632;48.826;15.176;2023-02-15T15:17:01;24.00;40.60
37794;DHT22;23632;48.826;15.176;2023-02-15T15:22:21;22.00;41.00
37794;DHT22;23632;48.826;15.176;2023-02-15T15:24:57;21.00;41.30
37794;DHT22;23632;48.826;15.176;2023-02-15T15:41:43;15.60;46.00
37794;DHT22;23632;48.826;15.176;2023-02-15T15:45:03;14.80;46.30
37794;DHT22;23632;48.826;15.176;2023-02-15T15:47:47;14.20;47.00
37794;DHT22;23632;48.826;15.176;2023-02-15T15:50:32;13.60;48.00
37794;DHT22;23632;48.826;15.176;2023-02-15T15:53:01;13.10;48.30
37794;DHT22;23632;48.826;15.176;2023-02-15T15:55:31;12.60;49.10
37794;DHT22;23632;48.826;15.176;2023-02-15T15:58:04;12.20;49.30
37794;DHT22;23632;48.826;15.176;2023-02-15T16:00:37;11.80;49.70
37794;DHT22;23632;48.826;15.176;2023-02-15T16:03:21;11.60;50.40
37794;DHT22;23632;48.826;15.176;2023-02-15T16:05:50;11.10;50.80
37794;DHT22;23632;48.826;15.176;2023-02-15T16:08:27;10.80;51.20
37794;DHT22;23632;48.826;15.176;2023-02-15T16:11:12;10.60;51.90
37794;DHT22;23632;48.826;15.176;2023-02-15T16:13:42;10.30;52.00
37794;DHT22;23632;48.826;15.176;2023-02-15T16:16:12;10.00;52.30
37794;DHT22;23632;48.826;15.176;2023-02-15T16:18:40;9.80;54.80
37794;DHT22;23632;48.826;15.176;2023-02-15T16:21:20;9.60;55.10
37794;DHT22;23632;48.826;15.176;2023-02-15T16:27:28;9.10;55.00
37794;DHT22;23632;48.826;15.176;2023-02-15T16:29:54;8.90;55.70
37794;DHT22;23632;48.826;15.176;2023-02-15T16:32:23;8.60;55.50
37794;DHT22;23632;48.826;15.176;2023-02-15T16:35:00;8.40;56.10
37794;DHT22;23632;48.826;15.176;2023-02-15T16:37:33;8.20;56.80
37794;DHT22;23632;48.826;15.176;2023-02-15T16:40:01;8.00;56.80
37794;DHT22;23632;48.826;15.176;2023-02-15T16:42:28;7.80;57.00
37794;DHT22;23632;48.826;15.176;2023-02-15T16:45:06;7.70;57.20
37794;DHT22;23632;48.826;15.176;2023-02-15T16:47:41;7.50;57.50
37794;DHT22;23632;48.826;15.176;2023-02-15T16:50:18;7.30;57.80
37794;DHT22;23632;48.826;15.176;2023-02-15T16:52:47;7.20;58.40
37794;DHT22;23632;48.826;15.176;2023-02-15T16:55:22;7.10;58.20
37794;DHT22;23632;48.826;15.176;2023-02-15T16:57:55;6.90;58.70
37794;DHT22;23632;48.826;15.176;2023-02-15T17:00:28;6.80;58.70
37794;DHT22;23632;48.826;15.176;2023-02-15T17:03:04;6.60;58.70
37794;DHT22;23632;48.826;15.176;2023-02-15T17:05:58;6.50;59.20
37794;DHT22;23632;48.826;15.176;2023-02-15T17:08:53;6.40;59.70
37794;DHT22;23632;48.826;15.176;2023-02-15T17:11:40;6.20;59.60
37794;DHT22;23632;48.826;15.176;2023-02-15T17:19:52;5.90;60.00
37794;DHT22;23632;48.826;15.176;2023-02-15T17:22:23;5.80;60.00
37794;DHT22;23632;48.826;15.176;2023-02-15T17:24:59;5.70;60.30
37794;DHT22;23632;48.826;15.176;2023-02-15T17:27:29;5.60;60.80
37794;DHT22;23632;48.826;15.176;2023-02-15T17:30:03;5.50;60.70
37794;DHT22;23632;48.826;15.176;2023-02-15T17:32:55;5.40;60.60
37794;DHT22;23632;48.826;15.176;2023-02-15T17:38:14;5.20;61.00
37794;DHT22;23632;48.826;15.176;2023-02-15T17:40:46;5.10;61.10
37794;DHT22;23632;48.826;15.176;2023-02-15T17:43:13;5.00;60.90
37794;DHT22;23632;48.826;15.176;2023-02-15T17:45:46;4.90;61.40
37794;DHT22;23632;48.826;15.176;2023-02-15T17:48:28;4.80;62.40
37794;DHT22;23632;48.826;15.176;2023-02-15T17:51:00;4.80;62.10
37794;DHT22;23632;48.826;15.176;2023-02-15T17:53:30;4.70;61.90
37794;DHT22;23632;48.826;15.176;2023-02-15T17:55:57;4.60;62.80
37794;DHT22;23632;48.826;15.176;2023-02-15T17:58:25;4.50;61.80
37794;DHT22;23632;48.826;15.176;2023-02-15T18:00:54;4.50;61.90
37794;DHT22;23632;48.826;15.176;2023-02-15T18:03:48;4.40;62.10
37794;DHT22;23632;48.826;15.176;2023-02-15T18:06:37;4.30;61.90
37794;DHT22;23632;48.826;15.176;2023-02-15T18:09:24;4.20;62.10
37794;DHT22;23632;48.826;15.176;2023-02-15T18:14:48;4.10;62.40
37794;DHT22;23632;48.826;15.176;2023-02-15T18:17:16;4.00;62.30
37794;DHT22;23632;48.826;15.176;2023-02-15T18:19:44;3.90;62.50
37794;DHT22;23632;48.826;15.176;2023-02-15T18:22:14;3.90;62.70
37794;DHT22;23632;48.826;15.176;2023-02-15T18:24:45;3.80;63.00
37794;DHT22;23632;48.826;15.176;2023-02-15T18:27:15;3.80;63.10
37794;DHT22;23632;48.826;15.176;2023-02-15T18:29:42;3.80;63.40
37794;DHT22;23632;48.826;15.176;2023-02-15T18:32:15;3.70;63.30
37794;DHT22;23632;48.826;15.176;2023-02-15T18:34:46;3.70;63.60
37794;DHT22;23632;48.826;15.176;2023-02-15T18:37:17;3.70;63.50
37794;DHT22;23632;48.826;15.176;2023-02-15T18:39:47;3.70;63.90
37794;DHT22;23632;48.826;15.176;2023-02-15T18:42:32;3.60;64.00
37794;DHT22;23632;48.826;15.176;2023-02-15T18:45:28;3.60;64.30
37794;DHT22;23632;48.826;15.176;2023-02-15T18:47:59;3.60;64.70
37794;DHT22;23632;48.826;15.176;2023-02-15T18:50:29;3.60;65.00
37794;DHT22;23632;48.826;15.176;2023-02-15T18:52:58;3.50;65.50
37794;DHT22;23632;48.826;15.176;2023-02-15T18:55:26;3.50;65.50
37794;DHT22;23632;48.826;15.176;2023-02-15T18:57:55;3.50;65.80
37794;DHT22;23632;48.826;15.176;2023-02-15T19:00:33;3.50;66.00
37794;DHT22;23632;48.826;15.176;2023-02-15T19:03:01;3.50;66.20
37794;DHT22;23632;48.826;15.176;2023-02-15T19:05:29;3.50;65.90